createdAt,value
2022-11-16T00:00:06.353Z,2.11
2022-11-16T00:00:37.935Z,1.77
2022-11-16T00:01:09.330Z,2.15
2022-11-16T00:01:40.799Z,2.49
2022-11-16T00:02:12.364Z,2.05
2022-11-16T00:02:43.796Z,1.73
2022-11-16T00:03:15.179Z,2.01
2022-11-16T00:03:46.567Z,1.85
2022-11-16T00:04:17.970Z,2.33
2022-11-16T00:04:49.368Z,2.04
2022-11-16T00:05:25.508Z,2.11
2022-11-16T00:05:59.463Z,1.90
2022-11-16T00:06:30.852Z,1.94
2022-11-16T00:07:02.263Z,1.89
2022-11-16T00:07:33.692Z,1.45
2022-11-16T00:08:05.105Z,2.09
2022-11-16T00:08:36.639Z,1.77
2022-11-16T00:09:08.131Z,2.12
2022-11-16T00:09:39.528Z,1.79
2022-11-16T00:10:10.919Z,2.07
2022-11-16T00:10:42.399Z,1.88
2022-11-16T00:11:13.789Z,1.72
2022-11-16T00:11:45.184Z,1.70
2022-11-16T00:12:16.580Z,2.08
2022-11-16T00:12:47.987Z,1.85
2022-11-16T00:13:19.388Z,1.93
2022-11-16T00:13:50.794Z,1.91
2022-11-16T00:14:22.188Z,2.12
2022-11-16T00:14:53.582Z,1.82
2022-11-16T00:15:24.981Z,2.30
2022-11-16T00:15:56.474Z,1.99
2022-11-16T00:16:27.887Z,2.13
2022-11-16T00:16:59.302Z,2.01
2022-11-16T00:17:30.691Z,2.13
2022-11-16T00:18:02.079Z,2.14
2022-11-16T00:18:33.691Z,2.11
2022-11-16T00:19:05.362Z,1.82
2022-11-16T00:19:36.771Z,1.92
2022-11-16T00:20:08.172Z,1.91
2022-11-16T00:20:39.571Z,1.65
2022-11-16T00:21:11.027Z,1.93
2022-11-16T00:21:42.446Z,1.97
2022-11-16T00:22:13.834Z,1.60
2022-11-16T00:22:45.247Z,1.92
2022-11-16T00:23:16.644Z,1.94
2022-11-16T00:23:48.030Z,1.97
2022-11-16T00:24:19.425Z,1.78
2022-11-16T00:24:50.827Z,1.96
2022-11-16T00:25:22.433Z,1.53
2022-11-16T00:25:53.912Z,1.63
2022-11-16T00:26:25.390Z,1.72
2022-11-16T00:26:56.791Z,1.64
2022-11-16T00:27:28.184Z,2.19
2022-11-16T00:27:59.606Z,1.59
2022-11-16T00:28:31.185Z,1.32
2022-11-16T00:29:02.814Z,1.91
2022-11-16T00:29:34.203Z,2.04
2022-11-16T00:30:05.605Z,1.80
2022-11-16T00:30:36.996Z,1.69
2022-11-16T00:31:08.392Z,1.84
2022-11-16T00:31:39.881Z,1.99
2022-11-16T00:32:11.272Z,1.80
2022-11-16T00:32:42.675Z,2.11
2022-11-16T00:33:14.087Z,1.98
2022-11-16T00:33:45.476Z,2.06
2022-11-16T00:34:16.867Z,1.76
2022-11-16T00:34:48.251Z,2.12
2022-11-16T00:35:19.655Z,1.95
2022-11-16T00:35:51.125Z,1.79
2022-11-16T00:36:22.518Z,1.74
2022-11-16T00:36:54.043Z,1.91
2022-11-16T00:37:25.504Z,1.73
2022-11-16T00:37:56.913Z,1.60
2022-11-16T00:38:28.315Z,1.86
2022-11-16T00:38:59.715Z,1.94
2022-11-16T00:39:31.116Z,2.20
2022-11-16T00:40:02.511Z,1.74
2022-11-16T00:40:33.907Z,1.52
2022-11-16T00:41:05.319Z,1.76
2022-11-16T00:41:36.707Z,1.79
2022-11-16T00:42:08.195Z,2.17
2022-11-16T00:42:39.668Z,2.01
2022-11-16T00:43:11.063Z,1.78
2022-11-16T00:43:42.484Z,1.63
2022-11-16T00:44:13.895Z,1.53
2022-11-16T00:44:45.290Z,1.49
2022-11-16T00:45:16.701Z,1.65
2022-11-16T00:45:48.089Z,1.55
2022-11-16T00:46:19.503Z,1.92
2022-11-16T00:46:50.889Z,1.67
2022-11-16T00:47:22.387Z,1.74
2022-11-16T00:47:59.179Z,2.09
2022-11-16T00:48:32.212Z,1.68
2022-11-16T00:49:03.862Z,1.78
2022-11-16T00:49:35.260Z,1.73
2022-11-16T00:50:06.650Z,1.83
2022-11-16T00:50:38.043Z,1.60
2022-11-16T00:51:09.456Z,1.56
2022-11-16T00:51:40.846Z,1.92
2022-11-16T00:52:12.243Z,1.68
2022-11-16T00:52:43.670Z,1.91
2022-11-16T00:53:15.071Z,1.48
2022-11-16T00:53:46.463Z,1.79
2022-11-16T00:54:18.018Z,1.64
2022-11-16T00:54:49.431Z,1.74
2022-11-16T00:55:20.827Z,1.61
2022-11-16T00:55:52.231Z,1.39
2022-11-16T00:56:23.619Z,1.78
2022-11-16T00:56:55.012Z,1.80
2022-11-16T00:57:26.411Z,1.78
2022-11-16T00:57:57.948Z,1.84
2022-11-16T00:58:29.360Z,1.57
2022-11-16T00:59:00.751Z,1.92
2022-11-16T00:59:32.135Z,1.75
2022-11-16T01:00:03.527Z,1.54
2022-11-16T01:00:34.923Z,1.48
2022-11-16T01:01:06.424Z,1.60
2022-11-16T01:01:37.998Z,1.31
2022-11-16T01:02:09.486Z,1.49
2022-11-16T01:02:40.882Z,1.85
2022-11-16T01:03:12.388Z,1.99
2022-11-16T01:03:43.820Z,1.61
2022-11-16T01:04:15.210Z,1.55
2022-11-16T01:04:46.600Z,1.92
2022-11-16T01:05:17.996Z,1.47
2022-11-16T01:05:49.387Z,1.27
2022-11-16T01:06:20.798Z,1.40
2022-11-16T01:06:52.195Z,1.55
2022-11-16T01:07:23.627Z,1.57
2022-11-16T01:07:55.038Z,1.32
2022-11-16T01:08:26.483Z,1.93
2022-11-16T01:08:57.867Z,1.81
2022-11-16T01:09:29.278Z,1.86
2022-11-16T01:10:00.667Z,2.11
2022-11-16T01:10:32.066Z,1.48
2022-11-16T01:11:03.473Z,1.26
2022-11-16T01:11:34.994Z,1.48
2022-11-16T01:12:06.392Z,1.36
2022-11-16T01:12:37.836Z,1.58
2022-11-16T01:13:09.243Z,1.57
2022-11-16T01:13:40.736Z,1.65
2022-11-16T01:14:12.130Z,1.35
2022-11-16T01:14:43.548Z,1.94
2022-11-16T01:15:14.954Z,1.65
2022-11-16T01:15:46.370Z,1.31
2022-11-16T01:16:17.762Z,1.63
2022-11-16T01:16:49.168Z,1.33
2022-11-16T01:17:20.561Z,1.67
2022-11-16T01:17:51.972Z,1.71
2022-11-16T01:18:23.375Z,1.66
2022-11-16T01:18:54.839Z,1.51
2022-11-16T01:19:26.227Z,1.41
2022-11-16T01:19:57.621Z,1.50
2022-11-16T01:20:29.059Z,1.58
2022-11-16T01:21:00.552Z,1.57
2022-11-16T01:21:31.948Z,1.80
2022-11-16T01:22:03.349Z,1.76
2022-11-16T01:22:34.738Z,1.47
2022-11-16T01:23:06.144Z,1.59
2022-11-16T01:23:37.535Z,1.68
2022-11-16T01:24:08.968Z,1.76
2022-11-16T01:24:40.359Z,1.64
2022-11-16T01:25:11.772Z,1.38
2022-11-16T01:25:43.175Z,1.25
2022-11-16T01:26:14.584Z,1.64
2022-11-16T01:26:45.977Z,1.87
2022-11-16T01:27:17.387Z,1.94
2022-11-16T01:27:48.811Z,1.58
2022-11-16T01:28:20.212Z,1.87
2022-11-16T01:28:51.606Z,2.00
2022-11-16T01:29:23.013Z,1.61
2022-11-16T01:29:54.403Z,1.70
2022-11-16T01:30:25.807Z,1.59
2022-11-16T01:30:57.197Z,1.60
2022-11-16T01:31:28.603Z,1.38
2022-11-16T01:32:00.014Z,1.70
2022-11-16T01:32:31.404Z,1.61
2022-11-16T01:33:02.806Z,1.44
2022-11-16T01:33:34.237Z,1.33
2022-11-16T01:34:05.628Z,1.69
2022-11-16T01:34:37.078Z,1.44
2022-11-16T01:35:08.480Z,1.35
2022-11-16T01:35:39.890Z,1.62
2022-11-16T01:36:11.283Z,1.49
2022-11-16T01:36:42.681Z,1.60
2022-11-16T01:37:14.100Z,1.56
2022-11-16T01:37:45.486Z,1.55
2022-11-16T01:38:16.891Z,1.37
2022-11-16T01:38:48.294Z,1.62
2022-11-16T01:39:19.906Z,1.44
2022-11-16T01:39:51.453Z,1.22
2022-11-16T01:40:22.857Z,1.51
2022-11-16T01:40:54.272Z,1.41
2022-11-16T01:41:25.693Z,1.29
2022-11-16T01:41:57.150Z,1.60
2022-11-16T01:42:28.558Z,1.26
2022-11-16T01:42:59.942Z,1.71
2022-11-16T01:43:31.333Z,1.43
2022-11-16T01:44:02.717Z,1.66
2022-11-16T01:44:34.108Z,1.58
2022-11-16T01:45:05.612Z,1.48
2022-11-16T01:45:37.016Z,1.76
2022-11-16T01:46:08.426Z,1.78
2022-11-16T01:46:39.812Z,1.64
2022-11-16T01:47:11.198Z,1.55
2022-11-16T01:47:42.601Z,1.64
2022-11-16T01:48:14.079Z,1.81
2022-11-16T01:48:45.634Z,1.68
2022-11-16T01:49:17.097Z,1.42
2022-11-16T01:49:48.502Z,1.25
2022-11-16T01:50:19.979Z,1.33
2022-11-16T01:50:51.389Z,1.62
2022-11-16T01:51:22.816Z,1.68
2022-11-16T01:51:54.204Z,1.87
2022-11-16T01:52:25.607Z,1.53
2022-11-16T01:52:56.995Z,1.53
2022-11-16T01:53:28.408Z,1.47
2022-11-16T01:53:59.803Z,1.73
2022-11-16T01:54:31.206Z,1.52
2022-11-16T01:55:02.623Z,1.32
2022-11-16T01:55:34.146Z,1.37
2022-11-16T01:56:05.536Z,1.47
2022-11-16T01:56:36.940Z,1.28
2022-11-16T01:57:08.351Z,1.37
2022-11-16T01:57:39.744Z,1.86
2022-11-16T01:58:11.144Z,1.61
2022-11-16T01:58:42.535Z,1.56
2022-11-16T01:59:13.943Z,1.19
2022-11-16T01:59:45.341Z,1.65
2022-11-16T02:00:16.690Z,2.01
2022-11-16T02:00:48.211Z,1.77
2022-11-16T02:01:19.766Z,1.67
2022-11-16T02:01:51.194Z,1.76
2022-11-16T02:02:22.604Z,1.47
2022-11-16T02:02:53.991Z,1.45
2022-11-16T02:03:25.443Z,1.35
2022-11-16T02:03:56.837Z,1.34
2022-11-16T02:04:28.257Z,1.43
2022-11-16T02:04:59.642Z,1.34
2022-11-16T02:05:31.035Z,1.60
2022-11-16T02:06:02.563Z,1.83
2022-11-16T02:06:33.954Z,1.22
2022-11-16T02:07:05.372Z,1.18
2022-11-16T02:07:36.856Z,1.29
2022-11-16T02:08:08.257Z,1.42
2022-11-16T02:08:39.642Z,1.52
2022-11-16T02:09:11.036Z,1.36
2022-11-16T02:09:42.433Z,1.16
2022-11-16T02:10:13.847Z,1.53
2022-11-16T02:10:45.264Z,1.41
2022-11-16T02:11:16.740Z,1.08
2022-11-16T02:11:48.148Z,1.44
2022-11-16T02:12:19.530Z,1.45
2022-11-16T02:12:50.918Z,1.55
2022-11-16T02:13:22.332Z,1.03
2022-11-16T02:13:53.723Z,1.47
2022-11-16T02:14:25.111Z,1.78
2022-11-16T02:14:56.525Z,1.07
2022-11-16T02:15:27.929Z,1.30
2022-11-16T02:15:59.326Z,1.35
2022-11-16T02:16:30.788Z,1.41
2022-11-16T02:17:02.179Z,1.49
2022-11-16T02:17:33.567Z,1.62
2022-11-16T02:18:04.963Z,1.40
2022-11-16T02:18:36.615Z,1.45
2022-11-16T02:19:08.162Z,1.37
2022-11-16T02:19:39.559Z,1.29
2022-11-16T02:20:10.946Z,1.42
2022-11-16T02:20:42.355Z,1.52
2022-11-16T02:21:13.747Z,1.24
2022-11-16T02:21:45.367Z,1.47
2022-11-16T02:22:16.764Z,1.07
2022-11-16T02:22:48.150Z,1.31
2022-11-16T02:23:19.563Z,1.31
2022-11-16T02:23:50.951Z,1.17
2022-11-16T02:24:22.343Z,1.56
2022-11-16T02:24:53.735Z,1.29
2022-11-16T02:25:25.140Z,1.24
2022-11-16T02:25:56.531Z,1.30
2022-11-16T02:26:27.920Z,1.40
2022-11-16T02:26:59.635Z,1.43
2022-11-16T02:27:31.030Z,1.14
2022-11-16T02:28:02.424Z,1.48
2022-11-16T02:28:34.189Z,1.15
2022-11-16T02:29:05.938Z,1.45
2022-11-16T02:29:37.332Z,1.29
2022-11-16T02:30:08.713Z,1.45
2022-11-16T02:30:40.129Z,1.51
2022-11-16T02:31:11.541Z,1.58
2022-11-16T02:31:42.932Z,1.81
2022-11-16T02:32:14.402Z,1.51
2022-11-16T02:32:45.811Z,1.50
2022-11-16T02:33:17.225Z,1.46
2022-11-16T02:33:48.620Z,1.33
2022-11-16T02:34:20.011Z,1.29
2022-11-16T02:34:51.398Z,1.38
2022-11-16T02:35:22.799Z,1.23
2022-11-16T02:35:54.195Z,1.11
2022-11-16T02:36:25.586Z,1.27
2022-11-16T02:36:57.001Z,1.41
2022-11-16T02:37:28.563Z,1.26
2022-11-16T02:37:59.947Z,1.40
2022-11-16T02:38:31.565Z,1.22
2022-11-16T02:39:03.198Z,1.10
2022-11-16T02:39:34.606Z,1.07
2022-11-16T02:40:05.998Z,1.31
2022-11-16T02:40:37.393Z,1.36
2022-11-16T02:41:08.784Z,1.02
2022-11-16T02:41:40.171Z,1.34
2022-11-16T02:42:11.563Z,1.09
2022-11-16T02:42:43.031Z,1.07
2022-11-16T02:43:14.450Z,1.15
2022-11-16T02:43:45.843Z,1.43
2022-11-16T02:44:17.232Z,1.18
2022-11-16T02:44:48.620Z,0.92
2022-11-16T02:45:20.030Z,1.11
2022-11-16T02:45:51.421Z,0.96
2022-11-16T02:46:22.816Z,1.03
2022-11-16T02:46:54.213Z,1.06
2022-11-16T02:47:25.623Z,1.07
2022-11-16T02:47:57.048Z,1.34
2022-11-16T02:48:28.451Z,1.85
2022-11-16T02:48:59.855Z,1.10
2022-11-16T02:49:31.264Z,1.19
2022-11-16T02:50:02.646Z,1.09
2022-11-16T02:50:34.032Z,1.31
2022-11-16T02:51:05.426Z,1.30
2022-11-16T02:51:36.813Z,1.08
2022-11-16T02:52:08.206Z,1.40
2022-11-16T02:52:39.591Z,1.42
2022-11-16T02:53:11.047Z,1.24
2022-11-16T02:53:42.447Z,0.94
2022-11-16T02:54:13.831Z,1.09
2022-11-16T02:54:45.218Z,1.30
2022-11-16T02:55:16.602Z,1.05
2022-11-16T02:55:47.993Z,1.21
2022-11-16T02:56:19.400Z,1.05
2022-11-16T02:56:50.815Z,1.24
2022-11-16T02:57:22.218Z,1.13
2022-11-16T02:57:53.622Z,1.48
2022-11-16T02:58:25.111Z,1.33
2022-11-16T02:58:56.535Z,1.30
2022-11-16T02:59:27.929Z,1.22
2022-11-16T02:59:59.327Z,1.20
2022-11-16T03:00:30.732Z,1.46
2022-11-16T03:01:02.180Z,1.29
2022-11-16T03:01:33.722Z,1.05
2022-11-16T03:02:05.202Z,0.98
2022-11-16T03:02:36.680Z,1.13
2022-11-16T03:03:08.068Z,1.41
2022-11-16T03:03:39.588Z,1.12
2022-11-16T03:04:10.976Z,1.28
2022-11-16T03:04:42.367Z,1.14
2022-11-16T03:05:13.756Z,1.03
2022-11-16T03:05:45.168Z,1.25
2022-11-16T03:06:16.564Z,1.30
2022-11-16T03:06:48.016Z,1.34
2022-11-16T03:07:19.515Z,1.33
2022-11-16T03:07:50.918Z,1.20
2022-11-16T03:08:22.320Z,1.06
2022-11-16T03:08:53.768Z,1.15
2022-11-16T03:09:25.174Z,1.04
2022-11-16T03:09:56.557Z,0.97
2022-11-16T03:10:27.963Z,1.05
2022-11-16T03:10:59.351Z,1.37
2022-11-16T03:11:30.753Z,1.54
2022-11-16T03:12:03.172Z,1.14
2022-11-16T03:12:34.559Z,1.07
2022-11-16T03:13:05.963Z,1.19
2022-11-16T03:13:37.352Z,1.26
2022-11-16T03:14:09.030Z,1.17
2022-11-16T03:14:40.431Z,1.05
2022-11-16T03:15:11.818Z,1.12
2022-11-16T03:15:43.215Z,1.29
2022-11-16T03:16:14.613Z,1.57
2022-11-16T03:16:46.006Z,1.27
2022-11-16T03:17:17.391Z,1.09
2022-11-16T03:17:48.802Z,1.31
2022-11-16T03:18:20.189Z,1.24
2022-11-16T03:18:51.574Z,0.97
2022-11-16T03:19:23.079Z,1.13
2022-11-16T03:19:54.486Z,1.30
2022-11-16T03:20:25.871Z,1.17
2022-11-16T03:20:57.278Z,1.13
2022-11-16T03:21:28.663Z,1.00
2022-11-16T03:22:00.057Z,1.09
2022-11-16T03:22:31.481Z,1.35
2022-11-16T03:23:02.901Z,1.12
2022-11-16T03:23:34.449Z,1.33
2022-11-16T03:24:05.861Z,1.03
2022-11-16T03:24:37.347Z,1.22
2022-11-16T03:25:08.729Z,1.47
2022-11-16T03:25:40.130Z,0.94
2022-11-16T03:26:11.534Z,1.37
2022-11-16T03:26:42.943Z,1.09
2022-11-16T03:27:14.337Z,1.20
2022-11-16T03:27:45.730Z,1.35
2022-11-16T03:28:17.120Z,1.26
2022-11-16T03:28:48.506Z,1.38
2022-11-16T03:29:19.891Z,1.07
2022-11-16T03:29:51.410Z,1.31
2022-11-16T03:30:23.946Z,1.39
2022-11-16T03:30:55.665Z,1.37
2022-11-16T03:31:27.068Z,1.22
2022-11-16T03:31:58.455Z,0.97
2022-11-16T03:32:29.854Z,1.01
2022-11-16T03:33:01.299Z,1.06
2022-11-16T03:33:32.682Z,1.18
2022-11-16T03:34:04.085Z,1.24
2022-11-16T03:34:35.475Z,1.41
2022-11-16T03:35:07.007Z,1.49
2022-11-16T03:35:38.409Z,1.30
2022-11-16T03:36:09.799Z,1.31
2022-11-16T03:36:41.199Z,1.42
2022-11-16T03:37:12.605Z,1.60
2022-11-16T03:37:43.986Z,1.27
2022-11-16T03:38:15.386Z,1.19
2022-11-16T03:38:46.776Z,1.20
2022-11-16T03:39:18.162Z,1.19
2022-11-16T03:39:49.551Z,1.04
2022-11-16T03:40:21.092Z,1.07
2022-11-16T03:40:52.503Z,1.19
2022-11-16T03:41:23.907Z,1.27
2022-11-16T03:41:55.307Z,1.38
2022-11-16T03:42:26.712Z,1.30
2022-11-16T03:42:58.129Z,1.42
2022-11-16T03:43:29.568Z,1.32
2022-11-16T03:44:00.959Z,1.26
2022-11-16T03:44:32.374Z,1.49
2022-11-16T03:45:03.807Z,1.23
2022-11-16T03:45:35.345Z,1.48
2022-11-16T03:46:06.755Z,1.06
2022-11-16T03:46:38.139Z,1.24
2022-11-16T03:47:09.532Z,1.02
2022-11-16T03:47:40.923Z,1.16
2022-11-16T03:48:12.334Z,1.29
2022-11-16T03:48:43.728Z,1.34
2022-11-16T03:49:15.119Z,1.16
2022-11-16T03:49:46.507Z,1.19
2022-11-16T03:50:17.904Z,1.17
2022-11-16T03:50:49.394Z,1.31
2022-11-16T03:51:20.783Z,1.28
2022-11-16T03:51:52.171Z,1.26
2022-11-16T03:52:23.577Z,1.46
2022-11-16T03:52:54.973Z,1.52
2022-11-16T03:53:26.360Z,1.14
2022-11-16T03:53:57.759Z,1.10
2022-11-16T03:54:29.167Z,1.13
2022-11-16T03:55:01.702Z,1.22
2022-11-16T03:55:33.087Z,1.08
2022-11-16T03:56:04.575Z,1.25
2022-11-16T03:56:35.978Z,1.19
2022-11-16T03:57:07.368Z,0.88
2022-11-16T03:57:38.763Z,1.22
2022-11-16T03:58:10.155Z,1.15
2022-11-16T03:58:41.551Z,1.39
2022-11-16T03:59:12.962Z,1.50
2022-11-16T03:59:44.353Z,1.35
2022-11-16T04:00:15.775Z,1.69
2022-11-16T04:00:47.238Z,1.13
2022-11-16T04:01:18.816Z,1.43
2022-11-16T04:01:50.236Z,1.03
2022-11-16T04:02:21.636Z,0.98
2022-11-16T04:02:53.058Z,1.31
2022-11-16T04:03:24.465Z,1.70
2022-11-16T04:03:55.895Z,1.32
2022-11-16T04:04:27.455Z,1.13
2022-11-16T04:04:58.944Z,1.11
2022-11-16T04:05:30.334Z,1.32
2022-11-16T04:06:01.773Z,1.40
2022-11-16T04:06:33.302Z,1.22
2022-11-16T04:07:04.739Z,1.04
2022-11-16T04:07:36.208Z,1.18
2022-11-16T04:08:07.648Z,1.18
2022-11-16T04:08:39.041Z,1.25
2022-11-16T04:09:10.476Z,1.23
2022-11-16T04:09:41.863Z,1.23
2022-11-16T04:10:13.266Z,1.58
2022-11-16T04:10:44.659Z,1.68
2022-11-16T04:11:16.044Z,1.20
2022-11-16T04:11:47.568Z,0.98
2022-11-16T04:12:18.955Z,1.41
2022-11-16T04:12:50.358Z,1.21
2022-11-16T04:13:21.748Z,1.31
2022-11-16T04:13:53.178Z,1.12
2022-11-16T04:14:24.566Z,1.17
2022-11-16T04:14:55.962Z,1.28
2022-11-16T04:15:27.348Z,1.19
2022-11-16T04:15:58.738Z,1.33
2022-11-16T04:16:30.151Z,1.39
2022-11-16T04:17:01.635Z,1.27
2022-11-16T04:17:33.029Z,1.23
2022-11-16T04:18:04.427Z,0.93
2022-11-16T04:18:36.444Z,1.26
2022-11-16T04:19:08.027Z,1.19
2022-11-16T04:19:39.417Z,0.90
2022-11-16T04:20:10.803Z,1.11
2022-11-16T04:20:42.192Z,1.22
2022-11-16T04:21:13.582Z,1.09
2022-11-16T04:21:44.971Z,1.24
2022-11-16T04:22:16.406Z,1.12
2022-11-16T04:22:47.800Z,1.24
2022-11-16T04:23:19.204Z,1.47
2022-11-16T04:23:50.596Z,0.96
2022-11-16T04:24:21.992Z,1.10
2022-11-16T04:24:53.398Z,0.93
2022-11-16T04:25:24.782Z,1.04
2022-11-16T04:25:56.165Z,1.38
2022-11-16T04:26:27.547Z,1.47
2022-11-16T04:26:59.154Z,1.28
2022-11-16T04:27:30.676Z,1.37
2022-11-16T04:28:02.163Z,1.60
2022-11-16T04:28:33.846Z,1.32
2022-11-16T04:29:05.439Z,1.43
2022-11-16T04:29:36.828Z,1.15
2022-11-16T04:30:08.222Z,1.26
2022-11-16T04:30:39.611Z,0.93
2022-11-16T04:31:11.015Z,1.27
2022-11-16T04:31:42.413Z,1.15
2022-11-16T04:32:13.807Z,1.28
2022-11-16T04:32:45.227Z,1.29
2022-11-16T04:33:16.620Z,1.35
2022-11-16T04:33:48.023Z,1.21
2022-11-16T04:34:19.418Z,1.09
2022-11-16T04:34:50.871Z,1.11
2022-11-16T04:35:22.276Z,1.24
2022-11-16T04:35:53.669Z,1.26
2022-11-16T04:36:25.122Z,1.33
2022-11-16T04:36:56.526Z,1.05
2022-11-16T04:37:27.924Z,1.35
2022-11-16T04:37:59.407Z,1.32
2022-11-16T04:38:30.981Z,1.08
2022-11-16T04:39:02.530Z,1.18
2022-11-16T04:39:33.919Z,1.10
2022-11-16T04:40:05.313Z,0.79
2022-11-16T04:40:36.727Z,1.04
2022-11-16T04:41:08.120Z,1.12
2022-11-16T04:41:39.519Z,1.28
2022-11-16T04:42:10.920Z,1.23
2022-11-16T04:42:42.307Z,1.27
2022-11-16T04:43:13.774Z,1.41
2022-11-16T04:43:45.182Z,1.07
2022-11-16T04:44:16.574Z,1.09
2022-11-16T04:44:47.964Z,1.32
2022-11-16T04:45:19.360Z,1.28
2022-11-16T04:45:50.774Z,1.42
2022-11-16T04:46:22.165Z,1.42
2022-11-16T04:46:53.560Z,1.38
2022-11-16T04:47:24.971Z,1.21
2022-11-16T04:47:56.355Z,1.33
2022-11-16T04:48:27.835Z,1.18
2022-11-16T04:48:59.246Z,0.96
2022-11-16T04:49:30.632Z,1.15
2022-11-16T04:50:02.018Z,1.01
2022-11-16T04:50:33.426Z,1.17
2022-11-16T04:51:04.848Z,0.88
2022-11-16T04:51:36.243Z,0.97
2022-11-16T04:52:07.641Z,1.27
2022-11-16T04:52:39.031Z,1.40
2022-11-16T04:53:10.428Z,1.20
2022-11-16T04:53:41.903Z,1.01
2022-11-16T04:54:13.307Z,1.44
2022-11-16T04:54:44.695Z,1.15
2022-11-16T04:55:16.108Z,0.96
2022-11-16T04:55:47.567Z,1.05
2022-11-16T04:56:18.971Z,1.31
2022-11-16T04:56:50.379Z,1.15
2022-11-16T04:57:21.782Z,1.06
2022-11-16T04:57:53.170Z,1.29
2022-11-16T04:58:24.715Z,1.08
2022-11-16T04:58:56.102Z,1.02
2022-11-16T04:59:27.520Z,1.11
2022-11-16T04:59:58.912Z,1.33
2022-11-16T05:00:30.321Z,1.33
2022-11-16T05:01:01.763Z,1.09
2022-11-16T05:01:33.250Z,1.48
2022-11-16T05:02:04.715Z,1.06
2022-11-16T05:02:36.104Z,1.26
2022-11-16T05:03:07.498Z,1.06
2022-11-16T05:03:38.911Z,0.96
2022-11-16T05:04:10.304Z,1.13
2022-11-16T05:04:41.690Z,1.14
2022-11-16T05:05:13.105Z,1.18
2022-11-16T05:05:44.494Z,1.16
2022-11-16T05:06:15.881Z,1.47
2022-11-16T05:06:47.359Z,1.24
2022-11-16T05:07:18.826Z,1.18
2022-11-16T05:07:50.383Z,1.52
2022-11-16T05:08:21.774Z,1.25
2022-11-16T05:08:53.255Z,0.92
2022-11-16T05:09:24.643Z,1.54
2022-11-16T05:09:56.089Z,1.30
2022-11-16T05:10:27.506Z,1.04
2022-11-16T05:10:58.998Z,0.84
2022-11-16T05:11:30.411Z,1.17
2022-11-16T05:12:01.980Z,1.13
2022-11-16T05:12:33.377Z,1.34
2022-11-16T05:13:04.767Z,0.93
2022-11-16T05:13:36.150Z,1.36
2022-11-16T05:14:07.620Z,1.05
2022-11-16T05:14:39.010Z,1.11
2022-11-16T05:15:10.419Z,0.91
2022-11-16T05:15:41.983Z,1.37
2022-11-16T05:16:13.375Z,0.90
2022-11-16T05:16:44.767Z,0.93
2022-11-16T05:17:16.172Z,1.13
2022-11-16T05:17:47.581Z,1.26
2022-11-16T05:18:18.975Z,1.45
2022-11-16T05:18:50.383Z,0.97
2022-11-16T05:19:21.894Z,1.02
2022-11-16T05:19:53.303Z,0.85
2022-11-16T05:20:24.726Z,1.01
2022-11-16T05:20:56.138Z,1.08
2022-11-16T05:21:27.533Z,1.11
2022-11-16T05:21:58.934Z,0.86
2022-11-16T05:22:30.335Z,1.00
2022-11-16T05:23:01.741Z,1.41
2022-11-16T05:23:33.177Z,1.33
2022-11-16T05:24:04.563Z,0.88
2022-11-16T05:24:36.051Z,1.18
2022-11-16T05:25:07.457Z,1.24
2022-11-16T05:25:38.872Z,1.34
2022-11-16T05:26:10.271Z,0.99
2022-11-16T05:26:41.660Z,1.59
2022-11-16T05:27:13.051Z,1.02
2022-11-16T05:27:44.436Z,1.02
2022-11-16T05:28:15.820Z,0.74
2022-11-16T05:28:47.203Z,0.87
2022-11-16T05:29:18.594Z,1.16
2022-11-16T05:29:50.108Z,1.29
2022-11-16T05:30:21.499Z,0.89
2022-11-16T05:30:52.898Z,1.15
2022-11-16T05:31:24.293Z,0.99
2022-11-16T05:31:55.696Z,1.07
2022-11-16T05:32:27.091Z,0.90
2022-11-16T05:32:58.499Z,1.05
2022-11-16T05:33:29.898Z,1.26
2022-11-16T05:34:01.308Z,1.02
2022-11-16T05:34:32.712Z,1.29
2022-11-16T05:35:04.175Z,1.52
2022-11-16T05:35:35.563Z,1.15
2022-11-16T05:36:06.976Z,0.76
2022-11-16T05:36:38.368Z,1.26
2022-11-16T05:37:09.758Z,1.04
2022-11-16T05:37:41.152Z,0.88
2022-11-16T05:38:12.542Z,1.06
2022-11-16T05:38:43.953Z,0.95
2022-11-16T05:39:15.368Z,0.89
2022-11-16T05:39:46.784Z,1.02
2022-11-16T05:40:18.348Z,0.78
2022-11-16T05:40:49.763Z,1.02
2022-11-16T05:41:21.155Z,1.12
2022-11-16T05:41:52.543Z,1.00
2022-11-16T05:42:23.927Z,0.93
2022-11-16T05:42:55.340Z,0.80
2022-11-16T05:43:26.741Z,1.09
2022-11-16T05:43:58.136Z,1.13
2022-11-16T05:44:29.546Z,1.11
2022-11-16T05:45:00.936Z,1.39
2022-11-16T05:45:32.388Z,1.19
2022-11-16T05:46:03.770Z,1.26
2022-11-16T05:46:35.154Z,1.03
2022-11-16T05:47:06.549Z,1.30
2022-11-16T05:47:37.950Z,1.19
2022-11-16T05:48:09.349Z,1.04
2022-11-16T05:48:40.735Z,0.90
2022-11-16T05:49:12.125Z,1.11
2022-11-16T05:49:43.539Z,1.31
2022-11-16T05:50:14.940Z,1.11
2022-11-16T05:50:46.499Z,1.28
2022-11-16T05:51:17.924Z,1.15
2022-11-16T05:51:49.327Z,1.01
2022-11-16T05:52:20.711Z,1.03
2022-11-16T05:52:52.105Z,0.99
2022-11-16T05:53:23.502Z,1.11
2022-11-16T05:53:54.892Z,0.79
2022-11-16T05:54:26.281Z,1.01
2022-11-16T05:54:57.668Z,1.05
2022-11-16T05:55:29.063Z,0.92
2022-11-16T05:56:00.569Z,1.04
2022-11-16T05:56:32.060Z,1.31
2022-11-16T05:57:03.520Z,1.28
2022-11-16T05:57:34.910Z,1.14
2022-11-16T05:58:06.320Z,0.82
2022-11-16T05:58:37.749Z,0.94
2022-11-16T05:59:12.486Z,1.01
2022-11-16T05:59:47.730Z,1.02
2022-11-16T06:00:19.111Z,1.02
2022-11-16T06:00:50.520Z,1.27
2022-11-16T06:01:22.042Z,0.83
2022-11-16T06:01:53.435Z,0.94
2022-11-16T06:02:24.843Z,1.00
2022-11-16T06:02:56.294Z,1.27
2022-11-16T06:03:27.744Z,1.13
2022-11-16T06:03:59.196Z,0.95
2022-11-16T06:04:30.594Z,1.20
2022-11-16T06:05:01.996Z,1.23
2022-11-16T06:05:38.977Z,0.81
2022-11-16T06:06:11.772Z,1.05
2022-11-16T06:06:43.263Z,0.99
2022-11-16T06:07:14.764Z,0.87
2022-11-16T06:07:46.233Z,1.12
2022-11-16T06:08:17.643Z,1.03
2022-11-16T06:08:49.062Z,0.84
2022-11-16T06:09:20.466Z,1.12
2022-11-16T06:09:51.851Z,1.18
2022-11-16T06:10:23.235Z,1.16
2022-11-16T06:10:54.625Z,1.01
2022-11-16T06:11:26.490Z,1.17
2022-11-16T06:11:59.084Z,1.05
2022-11-16T06:12:30.486Z,1.17
2022-11-16T06:13:01.881Z,0.92
2022-11-16T06:13:33.287Z,0.81
2022-11-16T06:14:04.676Z,1.09
2022-11-16T06:14:36.073Z,0.92
2022-11-16T06:15:07.456Z,1.02
2022-11-16T06:15:38.843Z,1.22
2022-11-16T06:16:10.253Z,1.14
2022-11-16T06:16:41.643Z,1.07
2022-11-16T06:17:13.128Z,0.88
2022-11-16T06:17:44.535Z,0.90
2022-11-16T06:18:16.023Z,1.00
2022-11-16T06:18:47.411Z,0.77
2022-11-16T06:19:18.794Z,0.99
2022-11-16T06:19:50.211Z,1.00
2022-11-16T06:20:21.599Z,0.94
2022-11-16T06:20:52.992Z,0.84
2022-11-16T06:21:24.383Z,1.19
2022-11-16T06:21:55.788Z,0.88
2022-11-16T06:22:27.295Z,1.00
2022-11-16T06:22:58.682Z,0.84
2022-11-16T06:23:30.091Z,0.99
2022-11-16T06:24:01.501Z,0.95
2022-11-16T06:24:32.887Z,0.96
2022-11-16T06:25:04.280Z,0.80
2022-11-16T06:25:35.687Z,0.91
2022-11-16T06:26:07.085Z,1.02
2022-11-16T06:26:38.470Z,1.10
2022-11-16T06:27:09.873Z,1.22
2022-11-16T06:27:41.351Z,0.91
2022-11-16T06:28:12.739Z,0.93
2022-11-16T06:28:44.132Z,1.24
2022-11-16T06:29:15.538Z,1.12
2022-11-16T06:29:46.946Z,1.44
2022-11-16T06:30:18.339Z,1.19
2022-11-16T06:30:49.742Z,1.18
2022-11-16T06:31:21.151Z,0.83
2022-11-16T06:31:52.541Z,1.07
2022-11-16T06:32:23.926Z,1.09
2022-11-16T06:32:55.378Z,1.00
2022-11-16T06:33:29.652Z,0.99
2022-11-16T06:34:03.674Z,1.14
2022-11-16T06:34:35.123Z,1.00
2022-11-16T06:35:06.519Z,1.00
2022-11-16T06:35:37.923Z,1.17
2022-11-16T06:36:09.317Z,1.06
2022-11-16T06:36:40.723Z,0.91
2022-11-16T06:37:12.110Z,1.12
2022-11-16T06:37:43.517Z,0.91
2022-11-16T06:38:15.002Z,1.12
2022-11-16T06:38:46.396Z,0.92
2022-11-16T06:39:17.802Z,0.89
2022-11-16T06:39:49.212Z,1.33
2022-11-16T06:40:20.603Z,1.06
2022-11-16T06:40:51.990Z,1.37
2022-11-16T06:41:23.381Z,1.14
2022-11-16T06:41:54.773Z,1.13
2022-11-16T06:42:26.198Z,0.89
2022-11-16T06:42:57.599Z,1.07
2022-11-16T06:43:29.071Z,1.09
2022-11-16T06:44:00.475Z,1.26
2022-11-16T06:44:31.947Z,1.17
2022-11-16T06:45:03.389Z,1.32
2022-11-16T06:45:34.794Z,1.44
2022-11-16T06:46:06.182Z,1.27
2022-11-16T06:46:37.587Z,1.35
2022-11-16T06:47:09.020Z,0.97
2022-11-16T06:47:40.422Z,1.30
2022-11-16T06:48:11.820Z,1.24
2022-11-16T06:48:43.325Z,1.14
2022-11-16T06:49:14.731Z,1.25
2022-11-16T06:49:46.498Z,1.50
2022-11-16T06:50:18.404Z,1.31
2022-11-16T06:50:49.891Z,1.08
2022-11-16T06:51:21.532Z,0.89
2022-11-16T06:51:53.213Z,1.27
2022-11-16T06:52:24.772Z,1.15
2022-11-16T06:52:56.158Z,1.28
2022-11-16T06:53:29.690Z,1.11
2022-11-16T06:54:01.578Z,1.50
2022-11-16T06:54:33.409Z,1.01
2022-11-16T06:55:05.433Z,1.14
2022-11-16T06:55:38.089Z,1.22
2022-11-16T06:56:14.406Z,1.57
2022-11-16T06:56:45.881Z,1.24
2022-11-16T06:57:18.263Z,1.36
2022-11-16T06:57:50.118Z,1.03
2022-11-16T06:58:25.760Z,1.06
2022-11-16T06:58:57.698Z,0.94